Time;durP1;ratioP1;P1;durP2;ratioP2;P2;SDS_P1;SDS_P2;PMS_P1;PMS_P2;Temp;Humidity;BMP_temperature;BMP_pressure;BME280_temperature;BME280_humidity;BME280_pressure;Samples;Min_cycle;Max_cycle;Signal;HPM_P1;HPM_P2
2021/03/16 00:01:37;;;;;;;32.70;16.12;;;;;;;1.65;77.28;99940.86;1749958;81;21136;-43
2021/03/16 00:04:07;;;;;;;34.92;17.12;;;;;;;1.62;77.45;99939.13;1749013;81;21022;-44
2021/03/16 00:06:40;;;;;;;49.35;17.32;;;;;;;1.62;77.67;99931.91;1743779;81;21137;-42
2021/03/16 00:09:09;;;;;;;43.90;18.57;;;;;;;1.64;77.75;99933.64;1749285;81;21464;-42
2021/03/16 00:11:37;;;;;;;41.48;17.20;;;;;;;1.65;77.80;99934.08;1749157;81;21375;-42
2021/03/16 00:14:05;;;;;;;40.35;16.37;;;;;;;1.60;77.79;99929.76;1749019;80;20939;-44
2021/03/16 00:16:32;;;;;;;40.12;15.70;;;;;;;1.55;77.97;99925.47;1748284;82;21543;-42
2021/03/16 00:19:01;;;;;;;38.28;16.05;;;;;;;1.55;78.12;99928.02;1748895;81;20938;-41
2021/03/16 00:21:29;;;;;;;30.65;15.95;;;;;;;1.55;78.25;99924.60;1749232;81;21041;-44
2021/03/16 00:23:57;;;;;;;36.15;16.20;;;;;;;1.52;78.28;99925.84;1748560;81;21203;-42
2021/03/16 00:26:25;;;;;;;29.70;14.50;;;;;;;1.50;78.21;99924.55;1740116;80;20990;-44
2021/03/16 00:28:52;;;;;;;34.13;14.65;;;;;;;1.47;78.31;99922.41;1749190;81;21069;-43
2021/03/16 00:31:20;;;;;;;31.37;15.43;;;;;;;1.46;78.47;99918.14;1749019;81;21151;-41
2021/03/16 00:33:49;;;;;;;40.43;15.18;;;;;;;1.42;78.68;99915.56;1749628;81;21061;-41
2021/03/16 00:36:17;;;;;;;33.90;15.20;;;;;;;1.41;78.81;99924.06;1749632;81;21153;-43
2021/03/16 00:38:45;;;;;;;37.45;15.80;;;;;;;1.42;78.97;99917.24;1748034;82;21041;-44
2021/03/16 00:41:13;;;;;;;39.85;14.83;;;;;;;1.48;79.03;99908.38;1750262;81;21069;-42
2021/03/16 00:43:41;;;;;;;36.23;15.00;;;;;;;1.52;78.99;99909.27;1749704;81;21128;-44
2021/03/16 00:46:09;;;;;;;35.83;15.28;;;;;;;1.56;78.95;99909.32;1748919;80;21192;-42
2021/03/16 00:48:37;;;;;;;31.23;14.73;;;;;;;1.60;78.92;99910.63;1739981;81;21543;-44
2021/03/16 00:51:06;;;;;;;35.10;14.07;;;;;;;1.61;78.87;99910.63;1748820;81;21144;-42
2021/03/16 00:53:33;;;;;;;34.27;14.45;;;;;;;1.64;78.75;99914.50;1750117;80;21061;-44
2021/03/16 00:56:04;;;;;;;39.20;14.40;;;;;;;1.69;78.66;99906.47;1748044;82;21136;-42
2021/03/16 00:58:33;;;;;;;27.17;13.38;;;;;;;1.74;78.57;99904.38;1748359;81;20923;-42
2021/03/16 01:01:00;;;;;;;36.93;14.95;;;;;;;1.74;78.50;99906.92;1749335;81;21208;-43
2021/03/16 01:03:30;;;;;;;38.42;14.83;;;;;;;1.74;78.51;99905.64;1749390;81;21709;-43
2021/03/16 01:05:58;;;;;;;31.60;13.05;;;;;;;1.77;78.49;99905.27;1750545;81;21058;-43
2021/03/16 01:08:26;;;;;;;27.62;13.18;;;;;;;1.80;78.47;99898.03;1749361;81;21170;-43
2021/03/16 01:10:55;;;;;;;34.65;13.08;;;;;;;1.82;78.43;99896.34;1749817;81;21495;-44
2021/03/16 01:13:23;;;;;;;35.50;13.25;;;;;;;1.81;78.43;99890.81;1749872;81;21403;-43
2021/03/16 01:15:52;;;;;;;33.20;12.28;;;;;;;1.84;78.40;99894.66;1748840;81;20899;-45
2021/03/16 01:18:20;;;;;;;36.58;13.15;;;;;;;1.85;78.36;99894.69;1749486;81;20951;-43
2021/03/16 01:20:48;;;;;;;24.85;12.53;;;;;;;1.89;78.34;99899.38;1750249;81;21161;-43
2021/03/16 01:23:16;;;;;;;30.65;12.58;;;;;;;1.88;78.29;99900.66;1750011;81;21231;-43
2021/03/16 01:25:45;;;;;;;37.42;13.03;;;;;;;1.86;78.29;99901.91;1742841;80;22242;-43
2021/03/16 01:28:13;;;;;;;34.88;12.35;;;;;;;1.87;78.29;99894.69;1749248;81;21069;-42
2021/03/16 01:30:41;;;;;;;32.70;12.75;;;;;;;1.89;78.31;99899.38;1749722;81;21104;-44
2021/03/16 01:33:09;;;;;;;27.98;12.28;;;;;;;1.92;78.30;99881.56;1748582;81;21129;-42
2021/03/16 01:35:36;;;;;;;34.45;12.90;;;;;;;1.91;78.30;99890.47;1748382;82;21598;-42
2021/03/16 01:38:04;;;;;;;35.65;12.43;;;;;;;1.92;78.32;99881.97;1749343;81;21275;-43
2021/03/16 01:40:35;;;;;;;30.08;12.25;;;;;;;1.96;78.24;99873.08;1749993;81;21516;-44
2021/03/16 01:43:21;;;;;;;25.55;11.90;;;;;;;1.96;78.19;99883.70;1749667;81;21101;-42
2021/03/16 01:45:49;;;;;;;31.90;12.95;;;;;;;1.95;78.21;99882.86;1748276;81;21736;-44
2021/03/16 01:48:25;;;;;;;26.23;11.70;;;;;;;1.98;78.13;99891.81;1749965;81;21220;-42
2021/03/16 01:50:53;;;;;;;30.88;11.73;;;;;;;1.95;78.22;99882.86;1749898;81;21383;-44
2021/03/16 01:53:21;;;;;;;33.67;12.13;;;;;;;1.98;78.24;99886.70;1749731;80;21033;-44
2021/03/16 01:58:26;;;;;;;31.68;11.65;;;;;;;1.99;78.32;99875.65;1873704;75;27966;-42
2021/03/16 02:01:13;;;;;;;31.70;11.20;;;;;;;2.00;78.62;99881.59;1860806;77;20863;-42
2021/03/16 02:03:59;;;;;;;30.45;11.55;;;;;;;2.00;78.33;99881.19;1860779;77;22614;-42
2021/03/16 02:07:01;;;;;;;;;;;;;;;2.00;78.27;99876.08;1863497;77;20914;-42
2021/03/16 02:10:29;;;;;;;31.00;10.75;;;;;;;1.96;78.44;99874.35;1860769;76;20130;-44
2021/03/16 02:13:39;;;;;;;34.27;11.00;;;;;;;1.94;78.60;99872.62;1860622;77;20923;-42
2021/03/16 02:16:37;;;;;;;31.12;10.30;;;;;;;1.92;78.74;99884.11;1860803;77;20930;-44
2021/03/16 02:19:35;;;;;;;28.12;10.10;;;;;;;1.92;78.87;99884.11;1860790;77;21358;-44
2021/03/16 02:22:21;;;;;;;22.90;10.25;;;;;;;1.93;78.95;99866.67;1823572;77;20934;-42
2021/03/16 02:25:40;;;;;;;24.75;10.65;;;;;;;1.89;78.96;99880.67;1857136;77;21605;-45
2021/03/16 02:29:09;;;;;;;24.15;9.95;;;;;;;1.86;79.01;99891.30;1827021;78;21013;-42
2021/03/16 02:32:05;;;;;;;24.47;9.18;;;;;;;1.84;79.15;99890.83;1826986;78;21025;-43
2021/03/16 02:35:02;;;;;;;28.87;9.75;;;;;;;1.82;79.27;99895.94;1827038;78;21203;-43
2021/03/16 02:37:48;;;;;;;34.80;10.25;;;;;;;1.79;79.40;99892.09;1826977;78;21006;-45
2021/03/16 02:40:35;;;;;;;31.07;10.15;;;;;;;1.78;79.48;99897.17;1826962;78;20930;-45
2021/03/16 02:43:21;;;;;;;26.73;9.30;;;;;;;1.79;79.53;99892.09;1826984;78;21081;-44
2021/03/16 02:46:07;;;;;;;20.55;9.00;;;;;;;1.78;79.50;99890.79;1827153;78;21080;-44
2021/03/16 02:48:54;;;;;;;26.90;9.40;;;;;;;1.75;79.57;99895.88;1827040;78;21365;-43
2021/03/16 02:51:41;;;;;;;24.40;9.18;;;;;;;1.75;79.58;99885.23;1826985;78;21013;-42
2021/03/16 02:54:27;;;;;;;;;;;;;;;1.72;79.68;99896.69;1829722;78;20930;-44
2021/03/16 02:57:16;;;;;;;19.00;8.83;;;;;;;1.68;79.79;99898.38;1797005;77;20133;-42
2021/03/16 03:00:04;;;;;;;18.10;8.93;;;;;;;1.63;79.96;99896.17;1816582;78;20931;-42
2021/03/16 03:02:51;;;;;;;25.62;9.43;;;;;;;1.57;80.03;99895.72;1816607;78;22096;-42
2021/03/16 03:05:38;;;;;;;28.23;8.23;;;;;;;1.54;80.29;99895.70;1816644;77;20985;-42
2021/03/16 03:08:25;;;;;;;23.87;9.88;;;;;;;1.49;80.43;99891.38;1816380;79;20994;-42
2021/03/16 03:11:11;;;;;;;23.50;9.03;;;;;;;1.51;80.69;99891.81;1816082;79;21491;-43
2021/03/16 03:14:00;;;;;;;16.55;8.33;;;;;;;1.47;80.77;99894.34;1816016;79;20998;-43
2021/03/16 03:16:45;;;;;;;18.25;7.78;;;;;;;1.47;80.80;99886.69;1815955;77;21370;-43
2021/03/16 03:19:32;;;;;;;;;;;;;;;1.47;80.94;99887.53;1818581;78;21178;-46
2021/03/16 03:22:32;;;;;;;26.05;7.72;;;;;;;1.48;81.03;99890.95;1816358;79;20188;-44
2021/03/16 03:25:25;;;;;;;25.77;8.13;;;;;;;1.47;81.09;99890.08;1815879;77;21527;-47
2021/03/16 03:28:17;;;;;;;26.23;7.85;;;;;;;1.49;81.15;99883.73;1815951;77;21002;-42
2021/03/16 03:31:05;;;;;;;18.90;7.53;;;;;;;1.52;81.20;99884.63;1815981;78;22199;-43
2021/03/16 03:33:51;;;;;;;21.87;7.60;;;;;;;1.51;81.21;99884.59;1793558;79;21534;-43
2021/03/16 03:36:39;;;;;;;21.57;7.95;;;;;;;1.55;81.11;99889.75;1815955;79;20946;-42
2021/03/16 03:39:27;;;;;;;15.55;7.65;;;;;;;1.56;81.13;99890.19;1816055;79;21002;-42
2021/03/16 03:42:17;;;;;;;17.50;7.97;;;;;;;1.61;81.10;99885.11;1816022;79;20898;-42
2021/03/16 03:45:05;;;;;;;19.40;6.92;;;;;;;1.64;80.99;99894.09;1815981;79;21193;-45
2021/03/16 03:47:51;;;;;;;20.00;7.90;;;;;;;1.67;80.94;99894.11;1815876;79;21021;-46
2021/03/16 03:50:39;;;;;;;19.20;7.92;;;;;;;1.71;80.86;99896.25;1816059;79;20963;-47
2021/03/16 03:53:25;;;;;;;26.65;8.58;;;;;;;1.72;80.78;99896.28;1815905;79;20994;-45
2021/03/16 03:56:12;;;;;;;17.12;7.92;;;;;;;1.75;80.65;99893.31;1815925;79;20978;-44
2021/03/16 03:58:58;;;;;;;21.10;7.47;;;;;;;1.74;80.67;99901.82;1823784;78;21542;-43
2021/03/16 04:01:44;;;;;;;24.07;7.50;;;;;;;1.75;80.65;99902.25;1824358;78;21460;-44
2021/03/16 04:04:31;;;;;;;26.42;7.47;;;;;;;1.76;80.64;99897.58;1824397;78;21056;-43
2021/03/16 04:07:17;;;;;;;19.40;7.97;;;;;;;1.72;80.58;99905.22;1824477;78;20927;-44
2021/03/16 04:10:08;;;;;;;25.15;7.78;;;;;;;1.74;80.54;99903.93;1824488;78;21064;-42
2021/03/16 04:12:54;;;;;;;18.90;8.53;;;;;;;1.72;80.49;99905.22;1824366;78;21347;-44
2021/03/16 04:15:41;;;;;;;24.35;7.90;;;;;;;1.71;80.57;99903.50;1824162;78;21001;-43
2021/03/16 04:18:28;;;;;;;17.20;8.30;;;;;;;1.68;80.66;99905.16;1824274;78;20946;-42
2021/03/16 04:21:14;;;;;;;;;;;;;;;1.65;80.66;99907.69;1826996;78;20914;-43
2021/03/16 04:24:01;;;;;;;29.37;9.10;;;;;;;1.63;80.88;99901.28;1824617;78;20133;-41
2021/03/16 04:26:47;;;;;;;20.50;8.60;;;;;;;1.60;80.97;99899.14;1824237;77;21341;-44
2021/03/16 04:29:33;;;;;;;15.60;8.53;;;;;;;1.56;81.20;99896.97;1824349;77;20922;-45
2021/03/16 04:32:20;;;;;;;16.30;8.08;;;;;;;1.54;81.35;99908.86;1824458;77;20994;-43
2021/03/16 04:35:08;;;;;;;22.50;9.13;;;;;;;1.49;81.40;99913.06;1824354;78;20950;-44
2021/03/16 04:37:54;;;;;;;22.27;8.05;;;;;;;1.49;81.57;99911.79;1824266;78;20954;-44
2021/03/16 04:40:40;;;;;;;23.22;8.48;;;;;;;1.48;81.70;99914.75;1824401;78;21361;-44
2021/03/16 04:45:20;;;;;;;22.07;8.20;;;;;;;1.52;81.87;99906.72;1777004;79;22719;-44
2021/03/16 04:48:07;;;;;;;15.13;8.53;;;;;;;1.50;81.93;99906.69;1749657;80;21006;-44
2021/03/16 04:50:53;;;;;;;20.60;8.33;;;;;;;1.52;81.82;99915.23;1749566;81;21413;-42
2021/03/16 04:53:40;;;;;;;21.40;7.90;;;;;;;1.56;81.77;99913.15;1749431;82;21069;-42
2021/03/16 04:56:25;;;;;;;20.17;8.00;;;;;;;1.59;81.77;99911.03;1749573;82;21003;-43
2021/03/16 04:59:12;;;;;;;19.50;8.83;;;;;;;1.64;81.75;99914.50;1749517;82;21011;-44
2021/03/16 05:01:58;;;;;;;18.92;8.45;;;;;;;1.71;81.52;99900.08;1749467;82;20979;-43
2021/03/16 05:04:44;;;;;;;;;;;;;;;1.77;81.33;99887.80;1752041;82;21259;-45
2021/03/16 05:07:32;;;;;;;23.92;9.03;;;;;;;1.78;81.33;99913.77;1749338;82;20165;-43
2021/03/16 05:10:19;;;;;;;27.22;7.47;;;;;;;1.82;81.16;99919.32;1749444;82;20948;-43
2021/03/16 05:13:05;;;;;;;19.87;8.25;;;;;;;1.87;81.15;99911.28;1749386;82;21034;-42
2021/03/16 05:15:51;;;;;;;;;;;;;;;1.91;80.84;99909.62;1752041;82;21054;-43
2021/03/16 05:18:38;;;;;;;18.27;7.10;;;;;;;1.94;80.85;99913.47;1749823;82;21209;-45
2021/03/16 05:21:24;;;;;;;;;;;;;;;1.96;80.87;99916.48;1752067;82;21595;-43
2021/03/16 05:24:10;;;;;;;22.50;7.83;;;;;;;2.00;80.72;99916.94;1749453;81;20181;-44
2021/03/16 05:26:57;;;;;;;19.55;6.92;;;;;;;2.05;80.44;99916.11;1724115;82;21006;-43
2021/03/16 05:29:43;;;;;;;18.10;7.65;;;;;;;2.10;80.38;99917.86;1719583;82;21050;-44
2021/03/16 05:32:30;;;;;;;33.83;7.75;;;;;;;2.18;79.84;99910.27;1719618;83;21364;-43
2021/03/16 05:35:16;;;;;;;16.48;6.80;;;;;;;2.27;79.32;99906.89;1719672;82;21026;-42
2021/03/16 05:38:02;;;;;;;14.43;6.60;;;;;;;2.23;79.59;99902.20;1719732;82;21010;-44
2021/03/16 05:40:48;;;;;;;20.15;6.97;;;;;;;2.30;79.67;99911.61;1719550;83;20970;-43
2021/03/16 05:43:35;;;;;;;18.52;7.80;;;;;;;2.38;78.90;99910.80;1717672;83;21055;-43
2021/03/16 05:46:21;;;;;;;18.60;6.70;;;;;;;2.36;78.98;99913.36;1706802;84;21377;-42
2021/03/16 05:49:08;;;;;;;18.75;7.33;;;;;;;2.35;78.95;99921.00;1706780;82;20975;-42
2021/03/16 05:51:54;;;;;;;;;;;;;;;2.38;79.04;99923.16;1709313;84;21027;-43
2021/03/16 05:54:41;;;;;;;19.07;8.33;;;;;;;2.49;78.52;99903.20;1706632;84;20168;-44
2021/03/16 05:57:27;;;;;;;;;;;;;;;2.46;78.50;99907.02;1708877;84;20944;-44
2021/03/16 06:00:15;;;;;;;22.67;8.15;;;;;;;2.48;78.54;99920.25;1706349;84;21266;-42
2021/03/16 06:03:01;;;;;;;20.65;6.75;;;;;;;2.55;78.27;99918.59;1706294;84;20963;-43
2021/03/16 06:05:51;;;;;;;20.35;7.92;;;;;;;2.56;78.47;99936.91;1706263;84;21019;-44
2021/03/16 06:08:37;;;;;;;27.80;8.33;;;;;;;2.66;78.12;99930.16;1706251;83;20932;-43
2021/03/16 06:11:26;;;;;;;18.25;6.62;;;;;;;2.72;77.45;99930.19;1706421;84;21047;-43
2021/03/16 06:14:12;;;;;;;15.13;6.90;;;;;;;2.69;77.94;99922.50;1706310;84;21442;-42
2021/03/16 06:16:58;;;;;;;25.12;8.73;;;;;;;2.77;77.80;99926.36;1706212;84;21031;-43
2021/03/16 06:19:45;;;;;;;21.25;8.05;;;;;;;2.84;77.83;99945.58;1706239;84;21004;-43
2021/03/16 06:22:30;;;;;;;21.10;7.87;;;;;;;2.93;77.08;99928.15;1706467;83;21003;-44
2021/03/16 06:25:18;;;;;;;21.27;8.60;;;;;;;2.96;77.12;99924.77;1706232;82;21184;-44
2021/03/16 06:28:07;;;;;;;22.30;8.78;;;;;;;3.02;77.13;99931.17;1659131;84;21394;-42
2021/03/16 06:30:53;;;;;;;26.15;8.43;;;;;;;3.10;76.97;99938.45;1706216;84;20980;-44
2021/03/16 06:33:40;;;;;;;23.70;9.23;;;;;;;3.22;76.79;99940.20;1706193;84;20976;-42
2021/03/16 06:36:30;;;;;;;32.42;9.15;;;;;;;3.34;76.33;99941.10;1706386;82;21603;-43
2021/03/16 06:39:18;;;;;;;25.40;8.35;;;;;;;3.46;75.76;99942.40;1706292;84;21044;-43
2021/03/16 06:42:06;;;;;;;22.98;8.73;;;;;;;3.54;74.81;99939.45;1706311;84;21422;-42
2021/03/16 06:45:02;;;;;;;26.33;9.10;;;;;;;3.57;74.60;99939.45;1706110;82;21062;-43
2021/03/16 06:47:47;;;;;;;22.50;7.80;;;;;;;3.58;74.40;99930.05;1706344;84;20963;-43
2021/03/16 06:50:34;;;;;;;33.02;9.10;;;;;;;3.54;73.77;99935.61;1706213;84;21015;-44
2021/03/16 06:53:27;;;;;;;17.42;7.70;;;;;;;3.54;73.69;99937.30;1706515;83;20931;-45
2021/03/16 06:56:15;;;;;;;24.10;7.87;;;;;;;3.63;73.91;99933.47;1706275;84;21250;-42
2021/03/16 06:59:02;;;;;;;36.80;8.30;;;;;;;3.76;73.87;99942.47;1706342;84;26566;-44
2021/03/16 07:01:48;;;;;;;29.52;7.83;;;;;;;3.88;73.33;99944.62;1706224;83;20964;-41
2021/03/16 07:04:43;;;;;;;42.58;8.20;;;;;;;3.99;72.47;99943.76;1706204;83;21023;-42
2021/03/16 07:07:29;;;;;;;20.45;6.15;;;;;;;4.07;71.94;99946.33;1706220;84;20983;-45
2021/03/16 07:10:15;;;;;;;;;;;;;;;4.21;71.37;99950.17;1708852;83;21400;-42
2021/03/16 07:13:02;;;;;;;26.70;7.47;;;;;;;4.26;71.39;99939.48;1706500;84;20140;-44
2021/03/16 07:15:48;;;;;;;28.07;6.80;;;;;;;4.45;70.80;99947.59;1706228;83;20936;-43
2021/03/16 07:18:38;;;;;;;32.67;7.78;;;;;;;4.73;69.33;99929.58;1706358;84;21011;-44
2021/03/16 07:21:29;;;;;;;30.50;7.70;;;;;;;4.72;69.27;99941.98;1706286;84;21087;-45
2021/03/16 07:24:17;;;;;;;40.28;9.70;;;;;;;4.79;68.73;99947.95;1706155;84;21269;-45
2021/03/16 07:27:05;;;;;;;35.50;10.70;;;;;;;4.80;67.79;99928.27;1706212;82;21015;-43
2021/03/16 07:29:51;;;;;;;43.58;10.95;;;;;;;4.71;68.04;99926.61;1706196;82;20948;-44
2021/03/16 07:32:37;;;;;;;38.80;12.63;;;;;;;4.66;68.42;99933.44;1706345;82;21044;-43
2021/03/16 07:35:24;;;;;;;41.75;13.88;;;;;;;4.69;68.41;99950.13;1706240;84;20971;-43
2021/03/16 07:38:10;;;;;;;46.63;13.98;;;;;;;4.72;68.52;99936.02;1706295;83;21352;-43
2021/03/16 07:40:56;;;;;;;32.23;11.25;;;;;;;4.60;68.75;99947.15;1706344;84;21039;-44
2021/03/16 07:43:43;;;;;;;59.15;19.65;;;;;;;4.66;69.32;99950.11;1706195;84;21046;-44
2021/03/16 07:46:51;;;;;;;54.03;21.97;;;;;;;4.74;68.49;99944.11;1706353;83;20951;-43
2021/03/16 07:49:39;;;;;;;55.08;21.93;;;;;;;4.56;69.37;99939.87;1689404;84;20956;-44
2021/03/16 07:52:26;;;;;;;65.47;21.55;;;;;;;4.44;69.71;99943.76;1706185;84;21389;-43
2021/03/16 07:55:28;;;;;;;61.42;22.87;;;;;;;4.42;70.10;99955.28;1706064;84;21071;-44
2021/03/16 07:58:18;;;;;;;60.63;23.95;;;;;;;4.44;70.18;99952.28;1706209;83;20951;-44
2021/03/16 08:01:07;;;;;;;67.95;25.90;;;;;;;4.55;70.28;99939.91;1705963;84;21082;-43
2021/03/16 08:04:09;;;;;;;70.08;24.47;;;;;;;4.61;69.90;99943.73;1706157;84;21094;-44
2021/03/16 08:07:02;;;;;;;72.67;26.25;;;;;;;4.61;69.90;99943.73;1694519;83;21400;-44
2021/03/16 08:09:55;;;;;;;59.35;27.50;;;;;;;4.63;70.23;99938.16;1706158;84;21506;-49
2021/03/16 08:12:41;;;;;;;69.27;26.70;;;;;;;4.74;70.46;99937.70;1706196;84;20948;-45
2021/03/16 08:15:40;;;;;;;68.42;27.02;;;;;;;4.97;70.32;99938.05;1658854;84;21039;-45
2021/03/16 08:18:28;;;;;;;93.12;30.68;;;;;;;5.15;69.10;99929.42;1706290;84;21067;-43
2021/03/16 08:21:14;;;;;;;75.00;28.50;;;;;;;5.25;68.27;99945.63;1706222;84;21444;-44
2021/03/16 08:24:14;;;;;;;98.42;28.75;;;;;;;5.22;67.59;99946.09;1706248;84;21071;-44
2021/03/16 08:27:00;;;;;;;75.45;26.55;;;;;;;4.88;68.42;99938.09;1706161;82;20939;-44
2021/03/16 08:29:48;;;;;;;95.15;30.52;;;;;;;4.63;69.62;99944.98;1706158;84;21000;-44
2021/03/16 08:32:35;;;;;;;88.30;31.90;;;;;;;4.56;70.24;99947.57;1706236;84;20912;-45
2021/03/16 08:35:22;;;;;;;82.80;31.75;;;;;;;4.53;69.80;99940.30;1706167;84;21391;-44
2021/03/16 08:38:09;;;;;;;78.83;31.50;;;;;;;4.36;70.49;99932.64;1706190;84;21054;-43
2021/03/16 08:41:16;;;;;;;68.22;30.30;;;;;;;4.16;70.76;99929.25;1706408;84;21361;-44
2021/03/16 08:44:04;;;;;;;69.45;28.17;;;;;;;4.01;71.53;99914.74;1706114;83;21076;-44
2021/03/16 08:46:50;;;;;;;68.90;27.60;;;;;;;4.02;71.29;99885.71;1706236;83;21102;-44
2021/03/16 08:49:42;;;;;;;72.15;29.30;;;;;;;3.99;71.92;99925.83;1706225;84;21404;-42
2021/03/16 08:52:29;;;;;;;74.40;25.82;;;;;;;4.04;71.92;99925.39;1706105;84;20952;-44
2021/03/16 08:55:26;;;;;;;58.02;25.30;;;;;;;4.22;72.40;99914.31;1706150;84;20919;-43
2021/03/16 08:58:12;;;;;;;68.47;24.67;;;;;;;4.60;71.94;99922.79;1706296;84;20948;-44
2021/03/16 09:00:58;;;;;;;;;;;;;;;4.86;69.98;99895.77;1708739;84;21006;-45
2021/03/16 09:03:46;;;;;;;63.58;23.73;;;;;;;4.75;69.86;99913.76;1706174;84;20145;-43
2021/03/16 09:06:33;;;;;;;55.98;21.35;;;;;;;4.76;69.87;99913.34;1706201;84;21007;-44
2021/03/16 09:09:26;;;;;;;46.28;20.97;;;;;;;4.84;70.52;99909.48;1706325;82;20952;-44
2021/03/16 09:12:15;;;;;;;52.30;21.35;;;;;;;5.29;70.44;99920.38;1706164;84;21074;-45
2021/03/16 09:15:22;;;;;;;55.65;21.73;;;;;;;5.96;67.15;99911.39;1706255;84;21003;-44
2021/03/16 09:18:09;;;;;;;66.45;21.02;;;;;;;6.27;65.58;99909.45;1706252;84;21165;-42
2021/03/16 09:20:56;;;;;;;55.25;19.73;;;;;;;6.30;65.75;99908.13;1706225;84;21015;-44
2021/03/16 09:23:42;;;;;;;49.08;20.88;;;;;;;6.26;65.30;99897.46;1706308;84;20924;-44
2021/03/16 09:26:28;;;;;;;;;;;;;;;6.08;66.36;99907.48;1708586;82;20908;-43
2021/03/16 09:29:14;;;;;;;54.80;22.87;;;;;;;6.12;66.71;99907.88;1706195;84;20192;-43
2021/03/16 09:32:11;;;;;;;68.62;23.30;;;;;;;6.12;66.00;99901.86;1706314;84;21716;-44
2021/03/16 09:34:57;;;;;;;58.52;21.82;;;;;;;6.29;65.74;99893.98;1706397;83;21067;-44
2021/03/16 09:37:45;;;;;;;56.28;22.13;;;;;;;6.34;65.48;99892.25;1706239;82;21043;-46
2021/03/16 09:40:17;;;;;;;63.17;24.12;;;;;;;6.54;64.34;99879.59;1693839;84;21154;-44
2021/03/16 09:42:48;;;;;;;54.60;23.47;;;;;;;6.57;64.46;99862.42;1704907;83;20956;-46
2021/03/16 09:45:24;;;;;;;62.50;23.77;;;;;;;6.61;64.85;99870.52;1710343;82;21421;-46
2021/03/16 09:47:51;;;;;;;65.17;25.08;;;;;;;6.86;64.56;99874.53;1719989;83;21050;-42
2021/03/16 09:50:32;;;;;;;62.65;26.68;;;;;;;7.04;64.72;99876.02;1719763;83;21018;-44
2021/03/16 09:53:06;;;;;;;57.93;29.30;;;;;;;7.09;64.01;99869.53;1719786;83;21035;-48
2021/03/16 09:55:35;;;;;;;66.65;31.42;;;;;;;7.18;63.58;99861.22;1720033;83;21167;-47
2021/03/16 09:58:03;;;;;;;98.37;33.00;;;;;;;7.15;64.23;99875.42;1719762;83;22332;-46
2021/03/16 10:00:31;;;;;;;70.50;31.30;;;;;;;7.16;63.99;99870.69;1719826;83;21042;-45
2021/03/16 10:03:07;;;;;;;76.10;30.57;;;;;;;7.17;63.42;99868.53;1719841;83;20979;-42
2021/03/16 10:05:37;;;;;;;67.35;30.55;;;;;;;7.34;63.50;99863.59;1719714;83;20911;-43
2021/03/16 10:08:05;;;;;;;66.65;29.00;;;;;;;7.52;62.41;99861.63;1719872;83;21002;-44
2021/03/16 10:10:34;;;;;;;55.60;29.30;;;;;;;7.40;62.43;99839.03;1719869;83;21452;-45
2021/03/16 10:13:07;;;;;;;73.52;31.12;;;;;;;7.32;62.25;99851.17;1719755;83;21010;-46
2021/03/16 10:15:40;;;;;;;75.90;33.70;;;;;;;7.22;63.46;99855.60;1719201;83;21089;-43
2021/03/16 10:18:13;;;;;;;96.37;36.55;;;;;;;7.42;63.22;99857.88;1719745;83;20904;-43
2021/03/16 10:20:46;;;;;;;78.12;36.17;;;;;;;7.37;62.95;99858.84;1719750;83;20938;-45
2021/03/16 10:23:19;;;;;;;83.95;32.88;;;;;;;7.37;63.44;99851.12;1719791;83;21212;-46
2021/03/16 10:25:56;;;;;;;74.05;34.92;;;;;;;7.50;63.26;99833.75;1717576;82;21512;-45
2021/03/16 10:28:41;;;;;;;78.42;36.95;;;;;;;7.64;61.94;99837.40;1719738;83;21610;-41
2021/03/16 10:31:16;;;;;;;74.55;35.13;;;;;;;7.56;62.81;99849.94;1719826;83;21002;-43
2021/03/16 10:33:46;;;;;;;87.02;38.58;;;;;;;7.66;62.54;99848.07;1720014;83;21014;-45
2021/03/16 10:36:15;;;;;;;79.62;35.68;;;;;;;7.64;62.54;99825.80;1719702;83;20978;-46
2021/03/16 10:38:48;;;;;;;80.17;35.58;;;;;;;7.70;63.04;99851.46;1719745;83;21030;-45
2021/03/16 10:41:13;;;;;;;68.30;32.10;;;;;;;7.91;62.33;99857.55;1719587;83;20986;-46
2021/03/16 10:43:42;;;;;;;68.07;30.92;;;;;;;7.98;61.51;99841.97;1719756;82;21062;-44
2021/03/16 10:46:09;;;;;;;62.88;29.85;;;;;;;7.98;61.57;99831.24;1712423;83;21030;-43
2021/03/16 10:48:39;;;;;;;70.00;30.25;;;;;;;8.00;61.25;99832.48;1706177;83;21196;-45
2021/03/16 10:51:07;;;;;;;61.95;28.85;;;;;;;7.72;62.18;99831.67;1706147;83;21029;-43
2021/03/16 10:53:35;;;;;;;76.65;28.95;;;;;;;7.59;62.70;99819.43;1706315;84;20963;-45
2021/03/16 10:56:06;;;;;;;57.17;26.15;;;;;;;7.74;61.81;99815.33;1706291;84;21093;-44
2021/03/16 10:58:34;;;;;;;53.98;25.57;;;;;;;7.76;61.70;99816.15;1706232;84;21056;-44
2021/03/16 11:01:02;;;;;;;59.23;23.65;;;;;;;7.93;62.28;99818.84;1706258;84;21377;-44
2021/03/16 11:03:33;;;;;;;58.92;27.17;;;;;;;8.16;60.96;99809.85;1706174;83;21019;-43
2021/03/16 11:06:02;;;;;;;69.50;26.70;;;;;;;8.32;60.93;99805.25;1706241;84;21529;-45
2021/03/16 11:08:33;;;;;;;57.27;26.65;;;;;;;8.37;60.17;99811.61;1706239;83;21496;-46
2021/03/16 11:11:01;;;;;;;52.65;23.55;;;;;;;8.27;60.23;99800.20;1706271;84;20960;-43
2021/03/16 11:13:29;;;;;;;46.18;24.35;;;;;;;8.30;60.10;99787.24;1706218;82;21213;-44
2021/03/16 11:15:58;;;;;;;51.23;24.32;;;;;;;8.26;60.15;99801.50;1706143;84;21018;-44
2021/03/16 11:18:27;;;;;;;63.13;25.12;;;;;;;8.19;60.14;99802.05;1706199;84;21003;-44
2021/03/16 11:20:54;;;;;;;43.90;23.57;;;;;;;8.24;60.95;99791.23;1706198;83;20967;-45
2021/03/16 11:23:22;;;;;;;54.15;22.82;;;;;;;8.35;61.15;99783.30;1706178;84;21034;-46
2021/03/16 11:25:50;;;;;;;41.92;21.95;;;;;;;8.27;62.10;99795.05;1706146;82;21431;-43
2021/03/16 11:28:18;;;;;;;49.08;21.50;;;;;;;8.34;61.49;99787.59;1706182;83;20912;-45
2021/03/16 11:30:46;;;;;;;47.70;22.22;;;;;;;8.29;61.39;99797.58;1706227;83;20927;-44
2021/03/16 11:33:14;;;;;;;41.30;22.30;;;;;;;8.27;61.97;99790.31;1706116;82;21130;-45
2021/03/16 11:36:01;;;;;;;44.95;20.95;;;;;;;8.49;61.31;99788.17;1706187;84;20972;-44
2021/03/16 11:38:48;;;;;;;43.38;20.68;;;;;;;8.71;59.80;99778.27;1706199;82;21206;-41
2021/03/16 11:41:35;;;;;;;48.85;22.10;;;;;;;8.81;59.70;99798.28;1706183;84;20931;-45
2021/03/16 11:44:21;;;;;;;40.60;19.52;;;;;;;8.75;60.16;99796.67;1706238;84;21003;-45
2021/03/16 11:47:07;;;;;;;41.75;20.65;;;;;;;8.84;59.87;99787.02;1706284;82;21043;-46
2021/03/16 11:49:54;;;;;;;43.10;20.52;;;;;;;8.91;58.20;99784.28;1706188;84;21042;-43
2021/03/16 11:52:40;;;;;;;43.20;21.35;;;;;;;8.61;58.83;99778.91;1706307;84;21238;-45
2021/03/16 11:55:26;;;;;;;45.15;20.43;;;;;;;8.33;60.10;99794.05;1706271;84;21094;-44
2021/03/16 11:58:12;;;;;;;38.90;21.20;;;;;;;8.28;60.54;99789.00;1706320;84;20964;-44
2021/03/16 12:01:00;;;;;;;40.78;19.45;;;;;;;8.26;60.57;99778.30;1706206;82;21058;-46
2021/03/16 12:03:46;;;;;;;55.20;18.35;;;;;;;8.18;60.81;99780.59;1706180;84;20968;-44
2021/03/16 12:06:33;;;;;;;43.25;17.62;;;;;;;8.32;60.39;99766.56;1706164;84;21211;-43
2021/03/16 12:09:19;;;;;;;32.90;18.80;;;;;;;8.40;60.75;99749.23;1706147;83;21066;-44
2021/03/16 12:12:07;;;;;;;40.15;17.90;;;;;;;8.53;60.51;99775.65;1706296;84;21091;-48
2021/03/16 12:14:54;;;;;;;37.38;20.55;;;;;;;8.71;60.81;99769.66;1706147;83;21595;-43
2021/03/16 12:17:40;;;;;;;42.90;21.27;;;;;;;8.93;59.90;99784.69;1706154;84;20936;-44
2021/03/16 12:20:26;;;;;;;;;;;;;;;8.91;59.81;99770.08;1708713;84;21363;-42
2021/03/16 12:23:12;;;;;;;39.42;20.80;;;;;;;8.85;59.81;99779.26;1706133;84;20165;-44
2021/03/16 12:25:59;;;;;;;;;;;;;;;8.90;60.11;99777.42;1708600;82;21020;-45
2021/03/16 12:28:45;;;;;;;44.27;23.02;;;;;;;9.02;59.46;99758.22;1706172;84;20200;-46
2021/03/16 12:31:32;;;;;;;50.78;24.52;;;;;;;8.88;60.55;99771.45;1706164;82;21086;-44
2021/03/16 12:34:19;;;;;;;53.30;23.20;;;;;;;8.94;60.93;99765.73;1706199;84;21369;-43
2021/03/16 12:37:06;;;;;;;37.98;22.52;;;;;;;8.72;59.79;99755.91;1706242;84;21015;-44
2021/03/16 12:39:52;;;;;;;40.78;22.13;;;;;;;8.40;60.15;99761.26;1706163;84;21080;-44
2021/03/16 12:42:38;;;;;;;35.40;20.57;;;;;;;8.05;61.25;99758.49;1706131;84;20932;-45
2021/03/16 12:45:25;;;;;;;37.28;21.25;;;;;;;7.96;61.76;99769.86;1706217;84;21011;-46
2021/03/16 12:48:30;;;;;;;47.65;20.95;;;;;;;8.01;61.81;99773.19;1706231;84;21439;-43